Strona główna
Zdjęcia satelitarne 15-dni prognozyKlimatMeteorologia morska Cyklony Błyskawica LotniskoFAQ Gazetka O
Pogoda : Europa Afryka Ameryka Północna Ameryka Południowa Azja Australia-Oceania Inny
Języki Kontakt

Albert, Francja

Albert-Picardie

Szerokość geograficzna: 49-58-21N, Długość geograficzna: 002-41-29E, wysokość: 111 m


METAR: LFAQ 011100Z AUTO 21005KT 180V260 9999 FEW010 BKN015 18/14 Q1022
short-TAF: LFAQ 010800Z 0109/0118 22008KT 0500 FG VV/// BECMG 0109/0111 9999 NSW SCT030
long-TAF: przestarzały (51617 godziny)

czas: 13:10 (11:10 UTC)

Aktualna obserwacja pogody

Raport powstał 10 minut temu, godzina 11:00 UTC  
Wiatr 05 kt od południowo-południowy zachód, zmienny między południe i zachód
Temperatura 18°C
Wilgotność 77%
Ciśnienie 1022 hPa
Widzialność 10 km lub więcej
Mało chmury na wysokości 1000 ft
Przerywane chmury na wysokości 1500 ft

Jednostka miary

Prognoza

Raport powstał 2 godziny i 56 minut temu, godzina 08:14 UTC  
Prognoza ważna od 01 godzina 09 UTC do 01 godzina 18 UTC
Wiatr 08 kt od południowy zachód
Widzialność 0500 m
mgła
Stopniowe zmiany
od 01 godzina 09 UTC do 01 godzina 11 UTC
Widzialność 10 km lub więcej
Rozproszone chmury na wysokości 3000 ft
Informacje na tej stronie internetowej podlegają klauzuli o wyłączeniu odpowiedzialności
Pogoda : Europa Afryka Ameryka Północna Ameryka Południowa Azja Australia-Oceania Inny
Zdjęcia satelitarne 15-dni prognozyKlimatMeteorologia morska Cyklony Błyskawica LotniskoFAQ Języki Kontakt Gazetka O